sensor_id;sensor_type;location;lat;lon;timestamp;P1;durP1;ratioP1;P2;durP2;ratioP2
5742;SDS011;2896;53.500;10.020;2023-05-07T00:01:01;25.13;;;14.70;;
5742;SDS011;2896;53.500;10.020;2023-05-07T00:03:28;21.90;;;15.60;;
5742;SDS011;2896;53.500;10.020;2023-05-07T00:05:55;24.30;;;15.90;;
5742;SDS011;2896;53.500;10.020;2023-05-07T00:08:21;17.10;;;13.63;;
5742;SDS011;2896;53.500;10.020;2023-05-07T00:10:48;15.80;;;12.87;;
5742;SDS011;2896;53.500;10.020;2023-05-07T00:13:14;17.43;;;13.83;;
5742;SDS011;2896;53.500;10.020;2023-05-07T00:15:43;23.30;;;15.40;;
5742;SDS011;2896;53.500;10.020;2023-05-07T00:18:09;18.93;;;14.17;;
5742;SDS011;2896;53.500;10.020;2023-05-07T00:20:36;19.80;;;14.50;;
5742;SDS011;2896;53.500;10.020;2023-05-07T00:23:02;16.20;;;13.73;;
5742;SDS011;2896;53.500;10.020;2023-05-07T00:25:29;19.30;;;13.83;;
5742;SDS011;2896;53.500;10.020;2023-05-07T00:27:56;17.47;;;13.40;;
5742;SDS011;2896;53.500;10.020;2023-05-07T00:30:27;14.90;;;12.77;;
5742;SDS011;2896;53.500;10.020;2023-05-07T00:32:55;14.53;;;11.30;;
5742;SDS011;2896;53.500;10.020;2023-05-07T00:35:22;14.87;;;11.70;;
5742;SDS011;2896;53.500;10.020;2023-05-07T00:37:49;20.73;;;12.00;;
5742;SDS011;2896;53.500;10.020;2023-05-07T00:40:15;15.97;;;10.90;;
5742;SDS011;2896;53.500;10.020;2023-05-07T00:42:42;13.90;;;11.13;;
5742;SDS011;2896;53.500;10.020;2023-05-07T00:45:11;13.43;;;11.77;;
5742;SDS011;2896;53.500;10.020;2023-05-07T00:47:38;12.33;;;10.20;;
5742;SDS011;2896;53.500;10.020;2023-05-07T00:50:07;12.27;;;10.80;;
5742;SDS011;2896;53.500;10.020;2023-05-07T00:52:35;19.93;;;12.30;;
5742;SDS011;2896;53.500;10.020;2023-05-07T00:55:04;12.37;;;10.80;;
5742;SDS011;2896;53.500;10.020;2023-05-07T00:57:32;13.10;;;9.93;;
5742;SDS011;2896;53.500;10.020;2023-05-07T01:00:02;11.37;;;10.07;;
5742;SDS011;2896;53.500;10.020;2023-05-07T01:02:29;13.20;;;10.60;;
5742;SDS011;2896;53.500;10.020;2023-05-07T01:04:56;12.17;;;10.07;;
5742;SDS011;2896;53.500;10.020;2023-05-07T01:07:24;12.23;;;10.20;;
5742;SDS011;2896;53.500;10.020;2023-05-07T01:09:51;12.67;;;10.00;;
5742;SDS011;2896;53.500;10.020;2023-05-07T01:12:18;17.07;;;10.83;;
5742;SDS011;2896;53.500;10.020;2023-05-07T01:14:45;10.50;;;9.47;;
5742;SDS011;2896;53.500;10.020;2023-05-07T01:17:13;14.13;;;11.00;;
5742;SDS011;2896;53.500;10.020;2023-05-07T01:19:40;18.40;;;12.03;;
5742;SDS011;2896;53.500;10.020;2023-05-07T01:22:07;18.10;;;12.40;;
5742;SDS011;2896;53.500;10.020;2023-05-07T01:24:38;11.97;;;10.30;;
5742;SDS011;2896;53.500;10.020;2023-05-07T01:27:04;12.40;;;9.33;;
5742;SDS011;2896;53.500;10.020;2023-05-07T01:29:31;12.40;;;10.30;;
5742;SDS011;2896;53.500;10.020;2023-05-07T01:31:58;11.50;;;10.23;;
5742;SDS011;2896;53.500;10.020;2023-05-07T01:34:27;14.33;;;10.53;;
5742;SDS011;2896;53.500;10.020;2023-05-07T01:36:56;15.20;;;11.63;;
5742;SDS011;2896;53.500;10.020;2023-05-07T01:39:24;13.90;;;11.13;;
5742;SDS011;2896;53.500;10.020;2023-05-07T01:41:53;10.67;;;9.57;;
5742;SDS011;2896;53.500;10.020;2023-05-07T01:44:20;12.23;;;10.30;;
5742;SDS011;2896;53.500;10.020;2023-05-07T01:46:48;13.37;;;10.93;;
5742;SDS011;2896;53.500;10.020;2023-05-07T01:49:15;11.13;;;9.93;;
5742;SDS011;2896;53.500;10.020;2023-05-07T01:51:42;10.67;;;9.57;;
5742;SDS011;2896;53.500;10.020;2023-05-07T01:54:09;11.90;;;9.20;;
5742;SDS011;2896;53.500;10.020;2023-05-07T01:56:36;11.07;;;9.33;;
5742;SDS011;2896;53.500;10.020;2023-05-07T01:59:04;11.47;;;9.20;;
5742;SDS011;2896;53.500;10.020;2023-05-07T02:01:31;10.50;;;9.47;;
5742;SDS011;2896;53.500;10.020;2023-05-07T02:03:57;12.80;;;10.30;;
5742;SDS011;2896;53.500;10.020;2023-05-07T02:06:24;11.87;;;10.20;;
5742;SDS011;2896;53.500;10.020;2023-05-07T02:08:50;12.70;;;11.03;;
5742;SDS011;2896;53.500;10.020;2023-05-07T02:11:17;12.33;;;11.03;;
5742;SDS011;2896;53.500;10.020;2023-05-07T02:13:44;11.47;;;10.37;;
5742;SDS011;2896;53.500;10.020;2023-05-07T02:16:11;11.80;;;10.60;;
5742;SDS011;2896;53.500;10.020;2023-05-07T02:18:39;11.90;;;10.67;;
5742;SDS011;2896;53.500;10.020;2023-05-07T02:21:05;11.60;;;10.40;;
5742;SDS011;2896;53.500;10.020;2023-05-07T02:23:32;11.60;;;9.83;;
5742;SDS011;2896;53.500;10.020;2023-05-07T02:25:59;11.83;;;10.60;;
5742;SDS011;2896;53.500;10.020;2023-05-07T02:28:25;15.20;;;11.10;;
5742;SDS011;2896;53.500;10.020;2023-05-07T02:30:52;14.33;;;10.37;;
5742;SDS011;2896;53.500;10.020;2023-05-07T02:33:20;13.57;;;10.37;;
5742;SDS011;2896;53.500;10.020;2023-05-07T02:35:47;13.00;;;10.87;;
5742;SDS011;2896;53.500;10.020;2023-05-07T02:38:13;13.53;;;11.50;;
5742;SDS011;2896;53.500;10.020;2023-05-07T02:40:40;12.80;;;11.50;;
5742;SDS011;2896;53.500;10.020;2023-05-07T02:43:08;13.70;;;11.57;;
5742;SDS011;2896;53.500;10.020;2023-05-07T02:45:34;14.03;;;11.50;;
5742;SDS011;2896;53.500;10.020;2023-05-07T02:48:02;13.70;;;11.50;;
5742;SDS011;2896;53.500;10.020;2023-05-07T02:50:31;13.57;;;12.07;;
5742;SDS011;2896;53.500;10.020;2023-05-07T02:52:58;14.10;;;12.00;;
5742;SDS011;2896;53.500;10.020;2023-05-07T02:55:25;14.67;;;11.87;;
5742;SDS011;2896;53.500;10.020;2023-05-07T02:57:51;15.67;;;11.07;;
5742;SDS011;2896;53.500;10.020;2023-05-07T03:00:18;15.00;;;12.30;;
5742;SDS011;2896;53.500;10.020;2023-05-07T03:02:46;14.70;;;12.13;;
5742;SDS011;2896;53.500;10.020;2023-05-07T03:05:12;16.47;;;11.90;;
5742;SDS011;2896;53.500;10.020;2023-05-07T03:07:40;19.63;;;12.10;;
5742;SDS011;2896;53.500;10.020;2023-05-07T03:10:10;20.83;;;13.07;;
5742;SDS011;2896;53.500;10.020;2023-05-07T03:12:37;15.77;;;13.27;;
5742;SDS011;2896;53.500;10.020;2023-05-07T03:15:04;17.13;;;12.67;;
5742;SDS011;2896;53.500;10.020;2023-05-07T03:17:31;19.63;;;12.97;;
5742;SDS011;2896;53.500;10.020;2023-05-07T03:19:58;16.73;;;12.00;;
5742;SDS011;2896;53.500;10.020;2023-05-07T03:22:24;16.10;;;12.43;;
5742;SDS011;2896;53.500;10.020;2023-05-07T03:24:52;19.77;;;13.07;;
5742;SDS011;2896;53.500;10.020;2023-05-07T03:27:19;17.40;;;13.30;;
5742;SDS011;2896;53.500;10.020;2023-05-07T03:29:45;18.80;;;12.47;;
5742;SDS011;2896;53.500;10.020;2023-05-07T03:32:12;20.47;;;13.10;;
5742;SDS011;2896;53.500;10.020;2023-05-07T03:34:39;18.03;;;13.27;;
5742;SDS011;2896;53.500;10.020;2023-05-07T03:37:06;18.93;;;13.27;;
5742;SDS011;2896;53.500;10.020;2023-05-07T03:39:32;16.97;;;13.07;;
5742;SDS011;2896;53.500;10.020;2023-05-07T03:42:00;18.83;;;13.40;;
5742;SDS011;2896;53.500;10.020;2023-05-07T03:44:27;15.90;;;13.77;;
5742;SDS011;2896;53.500;10.020;2023-05-07T03:46:54;23.17;;;14.50;;
5742;SDS011;2896;53.500;10.020;2023-05-07T03:49:21;13.63;;;12.13;;
5742;SDS011;2896;53.500;10.020;2023-05-07T03:51:47;16.93;;;13.87;;
5742;SDS011;2896;53.500;10.020;2023-05-07T03:54:14;16.27;;;13.13;;
5742;SDS011;2896;53.500;10.020;2023-05-07T03:56:40;26.77;;;13.30;;
5742;SDS011;2896;53.500;10.020;2023-05-07T03:59:08;15.27;;;12.77;;
5742;SDS011;2896;53.500;10.020;2023-05-07T04:01:35;18.90;;;13.67;;
5742;SDS011;2896;53.500;10.020;2023-05-07T04:04:02;18.27;;;13.00;;
5742;SDS011;2896;53.500;10.020;2023-05-07T04:06:29;16.17;;;12.73;;
5742;SDS011;2896;53.500;10.020;2023-05-07T04:08:56;15.50;;;12.97;;
5742;SDS011;2896;53.500;10.020;2023-05-07T04:11:22;15.93;;;13.60;;
5742;SDS011;2896;53.500;10.020;2023-05-07T04:13:49;16.00;;;13.13;;
5742;SDS011;2896;53.500;10.020;2023-05-07T04:16:17;15.77;;;12.20;;
5742;SDS011;2896;53.500;10.020;2023-05-07T04:18:44;16.57;;;13.00;;
5742;SDS011;2896;53.500;10.020;2023-05-07T04:21:14;17.03;;;12.43;;
5742;SDS011;2896;53.500;10.020;2023-05-07T04:23:41;15.37;;;12.60;;
5742;SDS011;2896;53.500;10.020;2023-05-07T04:26:08;15.20;;;11.97;;
5742;SDS011;2896;53.500;10.020;2023-05-07T04:28:35;13.77;;;11.97;;
5742;SDS011;2896;53.500;10.020;2023-05-07T04:31:01;15.43;;;12.63;;
5742;SDS011;2896;53.500;10.020;2023-05-07T04:33:29;14.10;;;11.57;;
5742;SDS011;2896;53.500;10.020;2023-05-07T04:35:56;17.77;;;12.50;;
5742;SDS011;2896;53.500;10.020;2023-05-07T04:38:22;14.50;;;12.00;;
5742;SDS011;2896;53.500;10.020;2023-05-07T04:40:49;16.27;;;12.97;;
5742;SDS011;2896;53.500;10.020;2023-05-07T04:43:16;26.43;;;12.30;;
5742;SDS011;2896;53.500;10.020;2023-05-07T04:45:42;14.03;;;11.40;;
5742;SDS011;2896;53.500;10.020;2023-05-07T04:48:09;16.73;;;12.10;;
5742;SDS011;2896;53.500;10.020;2023-05-07T04:50:37;16.70;;;12.60;;
5742;SDS011;2896;53.500;10.020;2023-05-07T04:53:03;16.47;;;11.47;;
5742;SDS011;2896;53.500;10.020;2023-05-07T04:55:30;18.97;;;11.50;;
5742;SDS011;2896;53.500;10.020;2023-05-07T04:57:57;14.00;;;12.47;;
5742;SDS011;2896;53.500;10.020;2023-05-07T05:00:25;16.03;;;13.27;;
5742;SDS011;2896;53.500;10.020;2023-05-07T05:02:52;36.53;;;12.80;;
5742;SDS011;2896;53.500;10.020;2023-05-07T05:05:19;16.13;;;12.17;;
5742;SDS011;2896;53.500;10.020;2023-05-07T05:07:47;16.90;;;12.43;;
5742;SDS011;2896;53.500;10.020;2023-05-07T05:10:13;14.73;;;11.23;;
5742;SDS011;2896;53.500;10.020;2023-05-07T05:12:41;18.03;;;12.13;;
5742;SDS011;2896;53.500;10.020;2023-05-07T05:15:08;17.27;;;12.80;;
5742;SDS011;2896;53.500;10.020;2023-05-07T05:17:38;16.47;;;12.37;;
5742;SDS011;2896;53.500;10.020;2023-05-07T05:20:05;19.07;;;12.47;;
5742;SDS011;2896;53.500;10.020;2023-05-07T05:22:32;19.20;;;13.27;;
5742;SDS011;2896;53.500;10.020;2023-05-07T05:25:00;11.70;;;10.50;;
5742;SDS011;2896;53.500;10.020;2023-05-07T05:27:27;17.10;;;12.20;;
5742;SDS011;2896;53.500;10.020;2023-05-07T05:29:54;14.23;;;12.37;;
5742;SDS011;2896;53.500;10.020;2023-05-07T05:32:21;14.97;;;11.90;;
5742;SDS011;2896;53.500;10.020;2023-05-07T05:34:47;16.63;;;11.73;;
5742;SDS011;2896;53.500;10.020;2023-05-07T05:37:14;15.67;;;11.30;;
5742;SDS011;2896;53.500;10.020;2023-05-07T05:39:41;16.10;;;11.73;;
5742;SDS011;2896;53.500;10.020;2023-05-07T05:42:09;13.97;;;11.47;;
5742;SDS011;2896;53.500;10.020;2023-05-07T05:44:35;13.47;;;11.90;;
5742;SDS011;2896;53.500;10.020;2023-05-07T05:47:02;12.60;;;11.27;;
5742;SDS011;2896;53.500;10.020;2023-05-07T05:49:29;16.73;;;11.97;;
5742;SDS011;2896;53.500;10.020;2023-05-07T05:51:56;15.73;;;11.43;;
5742;SDS011;2896;53.500;10.020;2023-05-07T05:54:22;19.70;;;14.30;;
5742;SDS011;2896;53.500;10.020;2023-05-07T05:56:49;14.90;;;11.87;;
5742;SDS011;2896;53.500;10.020;2023-05-07T05:59:17;16.20;;;12.30;;
5742;SDS011;2896;53.500;10.020;2023-05-07T06:01:43;14.10;;;12.50;;
5742;SDS011;2896;53.500;10.020;2023-05-07T06:04:10;15.00;;;12.87;;
5742;SDS011;2896;53.500;10.020;2023-05-07T06:06:36;16.23;;;12.83;;
5742;SDS011;2896;53.500;10.020;2023-05-07T06:09:03;14.47;;;10.77;;
5742;SDS011;2896;53.500;10.020;2023-05-07T06:11:30;12.97;;;11.60;;
5742;SDS011;2896;53.500;10.020;2023-05-07T06:13:57;14.57;;;11.80;;
5742;SDS011;2896;53.500;10.020;2023-05-07T06:16:25;13.97;;;11.83;;
5742;SDS011;2896;53.500;10.020;2023-05-07T06:18:52;14.43;;;12.23;;
5742;SDS011;2896;53.500;10.020;2023-05-07T06:21:19;14.10;;;10.90;;
5742;SDS011;2896;53.500;10.020;2023-05-07T06:23:45;16.27;;;10.20;;
5742;SDS011;2896;53.500;10.020;2023-05-07T06:26:12;12.87;;;11.37;;
5742;SDS011;2896;53.500;10.020;2023-05-07T06:28:38;13.90;;;11.40;;
5742;SDS011;2896;53.500;10.020;2023-05-07T06:31:12;12.27;;;10.97;;
5742;SDS011;2896;53.500;10.020;2023-05-07T06:33:41;11.27;;;9.90;;
5742;SDS011;2896;53.500;10.020;2023-05-07T06:36:08;11.67;;;10.43;;
5742;SDS011;2896;53.500;10.020;2023-05-07T06:38:34;13.33;;;10.77;;
5742;SDS011;2896;53.500;10.020;2023-05-07T06:41:01;13.20;;;11.10;;
5742;SDS011;2896;53.500;10.020;2023-05-07T06:43:28;14.80;;;10.83;;
5742;SDS011;2896;53.500;10.020;2023-05-07T06:45:54;12.93;;;10.33;;
5742;SDS011;2896;53.500;10.020;2023-05-07T06:48:21;12.93;;;10.00;;
5742;SDS011;2896;53.500;10.020;2023-05-07T06:50:49;13.23;;;11.40;;
5742;SDS011;2896;53.500;10.020;2023-05-07T06:53:16;10.27;;;9.37;;
5742;SDS011;2896;53.500;10.020;2023-05-07T06:55:42;12.80;;;11.37;;
5742;SDS011;2896;53.500;10.020;2023-05-07T06:58:09;15.50;;;11.73;;
5742;SDS011;2896;53.500;10.020;2023-05-07T07:00:36;14.00;;;12.43;;
5742;SDS011;2896;53.500;10.020;2023-05-07T07:03:02;14.43;;;10.80;;
5742;SDS011;2896;53.500;10.020;2023-05-07T07:05:29;14.80;;;12.13;;
5742;SDS011;2896;53.500;10.020;2023-05-07T07:07:57;11.90;;;10.60;;
5742;SDS011;2896;53.500;10.020;2023-05-07T07:10:23;15.70;;;11.13;;
5742;SDS011;2896;53.500;10.020;2023-05-07T07:12:50;12.00;;;10.80;;
5742;SDS011;2896;53.500;10.020;2023-05-07T07:15:17;19.37;;;10.17;;
5742;SDS011;2896;53.500;10.020;2023-05-07T07:17:45;10.67;;;9.60;;
5742;SDS011;2896;53.500;10.020;2023-05-07T07:20:12;12.30;;;9.23;;
5742;SDS011;2896;53.500;10.020;2023-05-07T07:22:39;10.53;;;9.00;;
5742;SDS011;2896;53.500;10.020;2023-05-07T07:25:07;9.47;;;8.40;;
5742;SDS011;2896;53.500;10.020;2023-05-07T07:27:36;8.93;;;8.10;;
5742;SDS011;2896;53.500;10.020;2023-05-07T07:30:03;11.40;;;9.50;;
5742;SDS011;2896;53.500;10.020;2023-05-07T07:32:30;11.83;;;8.70;;
5742;SDS011;2896;53.500;10.020;2023-05-07T07:34:58;11.13;;;9.00;;
5742;SDS011;2896;53.500;10.020;2023-05-07T07:37:25;8.67;;;7.83;;
5742;SDS011;2896;53.500;10.020;2023-05-07T07:39:51;9.97;;;8.50;;
5742;SDS011;2896;53.500;10.020;2023-05-07T07:42:19;9.67;;;8.50;;
5742;SDS011;2896;53.500;10.020;2023-05-07T07:44:46;12.00;;;8.80;;
5742;SDS011;2896;53.500;10.020;2023-05-07T07:47:12;8.83;;;7.93;;
5742;SDS011;2896;53.500;10.020;2023-05-07T07:49:39;8.90;;;8.03;;
5742;SDS011;2896;53.500;10.020;2023-05-07T07:52:06;10.20;;;8.53;;
5742;SDS011;2896;53.500;10.020;2023-05-07T07:54:33;9.80;;;8.80;;
5742;SDS011;2896;53.500;10.020;2023-05-07T07:56:59;15.90;;;10.77;;
5742;SDS011;2896;53.500;10.020;2023-05-07T07:59:27;13.60;;;8.33;;
5742;SDS011;2896;53.500;10.020;2023-05-07T08:01:54;11.70;;;8.50;;
5742;SDS011;2896;53.500;10.020;2023-05-07T08:04:22;9.90;;;8.90;;
5742;SDS011;2896;53.500;10.020;2023-05-07T08:06:48;10.77;;;7.90;;
5742;SDS011;2896;53.500;10.020;2023-05-07T08:09:15;9.60;;;8.70;;
5742;SDS011;2896;53.500;10.020;2023-05-07T08:11:41;9.70;;;8.10;;
5742;SDS011;2896;53.500;10.020;2023-05-07T08:14:08;13.40;;;8.27;;
5742;SDS011;2896;53.500;10.020;2023-05-07T08:16:36;9.20;;;7.10;;
5742;SDS011;2896;53.500;10.020;2023-05-07T08:19:03;8.23;;;7.43;;
5742;SDS011;2896;53.500;10.020;2023-05-07T08:21:29;8.90;;;8.00;;
5742;SDS011;2896;53.500;10.020;2023-05-07T08:23:56;7.93;;;7.20;;
5742;SDS011;2896;53.500;10.020;2023-05-07T08:26:23;8.40;;;7.50;;
5742;SDS011;2896;53.500;10.020;2023-05-07T08:28:50;10.43;;;7.50;;
5742;SDS011;2896;53.500;10.020;2023-05-07T08:31:16;8.40;;;7.50;;
5742;SDS011;2896;53.500;10.020;2023-05-07T08:33:44;8.40;;;7.47;;
5742;SDS011;2896;53.500;10.020;2023-05-07T08:36:11;8.33;;;7.53;;
5742;SDS011;2896;53.500;10.020;2023-05-07T08:38:37;8.10;;;7.33;;
5742;SDS011;2896;53.500;10.020;2023-05-07T08:41:05;8.70;;;7.50;;
5742;SDS011;2896;53.500;10.020;2023-05-07T08:43:32;10.70;;;7.47;;
5742;SDS011;2896;53.500;10.020;2023-05-07T08:46:02;8.87;;;7.97;;
5742;SDS011;2896;53.500;10.020;2023-05-07T08:48:30;11.53;;;8.37;;
5742;SDS011;2896;53.500;10.020;2023-05-07T08:50:59;9.77;;;8.80;;
5742;SDS011;2896;53.500;10.020;2023-05-07T08:53:26;9.57;;;8.17;;
5742;SDS011;2896;53.500;10.020;2023-05-07T08:55:53;8.40;;;7.60;;
5742;SDS011;2896;53.500;10.020;2023-05-07T08:58:19;8.87;;;8.07;;
5742;SDS011;2896;53.500;10.020;2023-05-07T09:00:46;8.67;;;7.90;;
5742;SDS011;2896;53.500;10.020;2023-05-07T09:03:13;8.07;;;7.37;;
5742;SDS011;2896;53.500;10.020;2023-05-07T09:05:40;8.27;;;7.47;;
5742;SDS011;2896;53.500;10.020;2023-05-07T09:08:10;9.53;;;8.63;;
5742;SDS011;2896;53.500;10.020;2023-05-07T09:10:40;10.30;;;8.63;;
5742;SDS011;2896;53.500;10.020;2023-05-07T09:13:07;9.37;;;8.03;;
5742;SDS011;2896;53.500;10.020;2023-05-07T09:15:34;8.00;;;7.30;;
5742;SDS011;2896;53.500;10.020;2023-05-07T09:18:00;10.53;;;9.07;;
5742;SDS011;2896;53.500;10.020;2023-05-07T09:20:27;9.30;;;8.37;;
5742;SDS011;2896;53.500;10.020;2023-05-07T09:22:56;9.83;;;7.90;;
5742;SDS011;2896;53.500;10.020;2023-05-07T09:25:28;17.80;;;7.40;;
5742;SDS011;2896;53.500;10.020;2023-05-07T09:27:56;9.77;;;8.37;;
5742;SDS011;2896;53.500;10.020;2023-05-07T09:30:22;8.43;;;7.60;;
5742;SDS011;2896;53.500;10.020;2023-05-07T09:32:53;9.10;;;7.00;;
5742;SDS011;2896;53.500;10.020;2023-05-07T09:35:19;9.37;;;8.10;;
5742;SDS011;2896;53.500;10.020;2023-05-07T09:37:49;7.37;;;6.67;;
5742;SDS011;2896;53.500;10.020;2023-05-07T09:40:21;7.67;;;7.07;;
5742;SDS011;2896;53.500;10.020;2023-05-07T09:42:50;9.53;;;8.17;;
5742;SDS011;2896;53.500;10.020;2023-05-07T09:45:21;11.53;;;7.73;;
5742;SDS011;2896;53.500;10.020;2023-05-07T09:47:53;8.10;;;7.30;;
5742;SDS011;2896;53.500;10.020;2023-05-07T09:50:21;8.40;;;7.50;;
5742;SDS011;2896;53.500;10.020;2023-05-07T09:52:52;11.23;;;7.57;;
5742;SDS011;2896;53.500;10.020;2023-05-07T09:55:20;9.43;;;7.23;;
5742;SDS011;2896;53.500;10.020;2023-05-07T09:57:48;7.43;;;6.80;;
5742;SDS011;2896;53.500;10.020;2023-05-07T10:00:18;8.20;;;7.53;;
5742;SDS011;2896;53.500;10.020;2023-05-07T10:02:46;7.83;;;7.13;;
5742;SDS011;2896;53.500;10.020;2023-05-07T10:05:15;8.80;;;7.83;;
5742;SDS011;2896;53.500;10.020;2023-05-07T10:07:42;9.00;;;7.47;;
5742;SDS011;2896;53.500;10.020;2023-05-07T10:10:10;8.80;;;6.90;;
5742;SDS011;2896;53.500;10.020;2023-05-07T10:12:37;8.93;;;7.33;;
5742;SDS011;2896;53.500;10.020;2023-05-07T10:15:07;8.00;;;7.30;;
5742;SDS011;2896;53.500;10.020;2023-05-07T10:17:35;8.30;;;7.50;;
5742;SDS011;2896;53.500;10.020;2023-05-07T10:20:03;8.23;;;7.50;;
5742;SDS011;2896;53.500;10.020;2023-05-07T10:22:30;16.20;;;7.13;;
5742;SDS011;2896;53.500;10.020;2023-05-07T10:25:03;12.60;;;7.40;;
5742;SDS011;2896;53.500;10.020;2023-05-07T10:27:32;11.63;;;6.87;;
5742;SDS011;2896;53.500;10.020;2023-05-07T10:30:01;10.27;;;7.37;;
5742;SDS011;2896;53.500;10.020;2023-05-07T10:32:40;8.53;;;7.70;;
5742;SDS011;2896;53.500;10.020;2023-05-07T10:35:10;7.93;;;7.23;;
5742;SDS011;2896;53.500;10.020;2023-05-07T10:37:44;7.70;;;6.90;;
5742;SDS011;2896;53.500;10.020;2023-05-07T10:40:12;9.63;;;7.33;;
5742;SDS011;2896;53.500;10.020;2023-05-07T10:42:52;7.70;;;7.10;;
5742;SDS011;2896;53.500;10.020;2023-05-07T10:45:21;7.40;;;6.70;;
5742;SDS011;2896;53.500;10.020;2023-05-07T10:48:05;6.53;;;6.00;;
5742;SDS011;2896;53.500;10.020;2023-05-07T10:50:32;7.67;;;6.73;;
5742;SDS011;2896;53.500;10.020;2023-05-07T10:55:51;8.83;;;7.20;;
5742;SDS011;2896;53.500;10.020;2023-05-07T10:58:38;7.00;;;6.33;;
5742;SDS011;2896;53.500;10.020;2023-05-07T11:01:06;6.97;;;6.37;;
5742;SDS011;2896;53.500;10.020;2023-05-07T11:03:32;7.20;;;6.60;;
5742;SDS011;2896;53.500;10.020;2023-05-07T11:06:09;7.07;;;6.50;;
5742;SDS011;2896;53.500;10.020;2023-05-07T11:08:52;6.90;;;6.40;;
5742;SDS011;2896;53.500;10.020;2023-05-07T11:11:20;6.53;;;6.03;;
5742;SDS011;2896;53.500;10.020;2023-05-07T11:14:12;8.00;;;6.80;;
5742;SDS011;2896;53.500;10.020;2023-05-07T11:16:40;6.70;;;6.20;;
5742;SDS011;2896;53.500;10.020;2023-05-07T11:19:07;6.30;;;5.90;;
5742;SDS011;2896;53.500;10.020;2023-05-07T11:21:34;6.60;;;6.10;;
5742;SDS011;2896;53.500;10.020;2023-05-07T11:24:03;7.43;;;6.40;;
5742;SDS011;2896;53.500;10.020;2023-05-07T11:26:42;7.03;;;6.40;;
5742;SDS011;2896;53.500;10.020;2023-05-07T11:29:13;6.73;;;6.13;;
5742;SDS011;2896;53.500;10.020;2023-05-07T11:31:41;7.20;;;6.60;;
5742;SDS011;2896;53.500;10.020;2023-05-07T11:34:08;6.20;;;5.70;;
5742;SDS011;2896;53.500;10.020;2023-05-07T11:36:35;5.83;;;5.33;;
5742;SDS011;2896;53.500;10.020;2023-05-07T11:39:22;6.70;;;6.20;;
5742;SDS011;2896;53.500;10.020;2023-05-07T11:41:49;6.57;;;6.17;;
5742;SDS011;2896;53.500;10.020;2023-05-07T11:44:17;6.33;;;5.57;;
5742;SDS011;2896;53.500;10.020;2023-05-07T11:46:44;6.30;;;5.70;;
5742;SDS011;2896;53.500;10.020;2023-05-07T11:49:11;5.73;;;5.33;;
5742;SDS011;2896;53.500;10.020;2023-05-07T11:51:38;6.23;;;5.67;;
5742;SDS011;2896;53.500;10.020;2023-05-07T11:54:05;5.90;;;5.40;;
5742;SDS011;2896;53.500;10.020;2023-05-07T11:56:33;7.57;;;6.90;;
5742;SDS011;2896;53.500;10.020;2023-05-07T11:59:00;6.90;;;5.57;;
5742;SDS011;2896;53.500;10.020;2023-05-07T12:01:28;6.13;;;5.70;;
5742;SDS011;2896;53.500;10.020;2023-05-07T12:03:55;5.70;;;5.30;;
5742;SDS011;2896;53.500;10.020;2023-05-07T12:06:22;6.57;;;5.30;;
5742;SDS011;2896;53.500;10.020;2023-05-07T12:08:48;6.73;;;5.27;;
5742;SDS011;2896;53.500;10.020;2023-05-07T12:11:15;5.60;;;5.20;;
5742;SDS011;2896;53.500;10.020;2023-05-07T12:13:47;5.43;;;5.03;;
5742;SDS011;2896;53.500;10.020;2023-05-07T12:16:14;5.53;;;5.13;;
5742;SDS011;2896;53.500;10.020;2023-05-07T12:18:42;5.97;;;5.37;;
5742;SDS011;2896;53.500;10.020;2023-05-07T12:21:09;5.40;;;4.90;;
5742;SDS011;2896;53.500;10.020;2023-05-07T12:23:36;4.90;;;4.47;;
5742;SDS011;2896;53.500;10.020;2023-05-07T12:26:04;4.40;;;4.00;;
5742;SDS011;2896;53.500;10.020;2023-05-07T12:28:31;4.60;;;4.20;;
5742;SDS011;2896;53.500;10.020;2023-05-07T12:31:03;4.73;;;4.40;;
5742;SDS011;2896;53.500;10.020;2023-05-07T12:33:30;4.30;;;4.10;;
5742;SDS011;2896;53.500;10.020;2023-05-07T12:36:02;4.10;;;3.70;;
5742;SDS011;2896;53.500;10.020;2023-05-07T12:38:34;6.10;;;4.23;;
5742;SDS011;2896;53.500;10.020;2023-05-07T12:41:02;4.67;;;4.10;;
5742;SDS011;2896;53.500;10.020;2023-05-07T12:43:29;6.87;;;5.13;;
5742;SDS011;2896;53.500;10.020;2023-05-07T12:45:56;4.13;;;3.93;;
5742;SDS011;2896;53.500;10.020;2023-05-07T12:48:23;5.07;;;4.67;;
5742;SDS011;2896;53.500;10.020;2023-05-07T12:50:52;4.53;;;4.30;;
5742;SDS011;2896;53.500;10.020;2023-05-07T12:53:21;4.47;;;4.27;;
5742;SDS011;2896;53.500;10.020;2023-05-07T12:55:50;4.87;;;3.97;;
5742;SDS011;2896;53.500;10.020;2023-05-07T12:58:18;12.97;;;3.87;;
5742;SDS011;2896;53.500;10.020;2023-05-07T13:00:47;4.73;;;4.43;;
5742;SDS011;2896;53.500;10.020;2023-05-07T13:03:20;4.07;;;3.87;;
5742;SDS011;2896;53.500;10.020;2023-05-07T13:05:49;3.70;;;3.60;;
5742;SDS011;2896;53.500;10.020;2023-05-07T13:08:24;3.83;;;3.63;;
5742;SDS011;2896;53.500;10.020;2023-05-07T13:10:53;3.63;;;3.53;;
5742;SDS011;2896;53.500;10.020;2023-05-07T13:13:20;3.60;;;3.40;;
5742;SDS011;2896;53.500;10.020;2023-05-07T13:15:47;7.50;;;3.87;;
5742;SDS011;2896;53.500;10.020;2023-05-07T13:18:14;3.80;;;3.50;;
5742;SDS011;2896;53.500;10.020;2023-05-07T13:20:40;3.77;;;3.43;;
5742;SDS011;2896;53.500;10.020;2023-05-07T13:23:07;4.57;;;3.70;;
5742;SDS011;2896;53.500;10.020;2023-05-07T13:25:35;3.73;;;3.50;;
5742;SDS011;2896;53.500;10.020;2023-05-07T13:28:01;3.47;;;3.37;;
5742;SDS011;2896;53.500;10.020;2023-05-07T13:30:29;3.43;;;3.23;;
5742;SDS011;2896;53.500;10.020;2023-05-07T13:32:56;3.83;;;3.63;;
5742;SDS011;2896;53.500;10.020;2023-05-07T13:35:22;3.50;;;3.30;;
5742;SDS011;2896;53.500;10.020;2023-05-07T13:37:49;3.13;;;3.00;;
5742;SDS011;2896;53.500;10.020;2023-05-07T13:40:17;3.53;;;3.33;;
5742;SDS011;2896;53.500;10.020;2023-05-07T13:42:45;3.23;;;3.00;;
5742;SDS011;2896;53.500;10.020;2023-05-07T13:45:12;4.00;;;3.20;;
5742;SDS011;2896;53.500;10.020;2023-05-07T13:47:39;3.50;;;3.30;;
5742;SDS011;2896;53.500;10.020;2023-05-07T13:50:06;3.20;;;3.00;;
5742;SDS011;2896;53.500;10.020;2023-05-07T13:52:33;3.30;;;3.10;;
5742;SDS011;2896;53.500;10.020;2023-05-07T13:55:00;3.20;;;3.00;;
5742;SDS011;2896;53.500;10.020;2023-05-07T13:57:27;2.40;;;2.40;;
5742;SDS011;2896;53.500;10.020;2023-05-07T13:59:55;3.67;;;2.80;;
5742;SDS011;2896;53.500;10.020;2023-05-07T14:02:21;2.90;;;2.80;;
5742;SDS011;2896;53.500;10.020;2023-05-07T14:04:48;3.03;;;2.93;;
5742;SDS011;2896;53.500;10.020;2023-05-07T14:07:15;2.43;;;2.33;;
5742;SDS011;2896;53.500;10.020;2023-05-07T14:09:41;2.80;;;2.70;;
5742;SDS011;2896;53.500;10.020;2023-05-07T14:12:08;5.00;;;2.90;;
5742;SDS011;2896;53.500;10.020;2023-05-07T14:14:34;3.60;;;3.07;;
5742;SDS011;2896;53.500;10.020;2023-05-07T14:17:02;2.77;;;2.57;;
5742;SDS011;2896;53.500;10.020;2023-05-07T14:19:29;4.67;;;2.70;;
5742;SDS011;2896;53.500;10.020;2023-05-07T14:21:57;3.30;;;3.10;;
5742;SDS011;2896;53.500;10.020;2023-05-07T14:24:23;2.63;;;2.53;;
5742;SDS011;2896;53.500;10.020;2023-05-07T14:26:50;3.50;;;3.20;;
5742;SDS011;2896;53.500;10.020;2023-05-07T14:29:17;2.90;;;2.80;;
5742;SDS011;2896;53.500;10.020;2023-05-07T14:31:44;6.40;;;2.73;;
5742;SDS011;2896;53.500;10.020;2023-05-07T14:34:12;2.33;;;2.33;;
5742;SDS011;2896;53.500;10.020;2023-05-07T14:36:39;3.43;;;2.50;;
5742;SDS011;2896;53.500;10.020;2023-05-07T14:39:05;2.30;;;2.30;;
5742;SDS011;2896;53.500;10.020;2023-05-07T14:41:32;3.10;;;2.70;;
5742;SDS011;2896;53.500;10.020;2023-05-07T14:43:59;4.47;;;2.30;;
5742;SDS011;2896;53.500;10.020;2023-05-07T14:46:26;2.53;;;2.43;;
5742;SDS011;2896;53.500;10.020;2023-05-07T14:48:53;2.50;;;2.40;;
5742;SDS011;2896;53.500;10.020;2023-05-07T14:51:21;2.33;;;2.23;;
5742;SDS011;2896;53.500;10.020;2023-05-07T14:53:48;2.53;;;2.40;;